sensor_id;sensor_type;location;lat;lon;timestamp;pressure;altitude;pressure_sealevel;temperature;humidity
46223;BME280;31943;51.410;7.564;2022-12-11T00:01:46;99801.13;;;1.91;66.13
46223;BME280;31943;51.410;7.564;2022-12-11T00:04:12;99799.41;;;1.92;66.13
46223;BME280;31943;51.410;7.564;2022-12-11T00:06:38;99797.78;;;1.94;66.23
46223;BME280;31943;51.410;7.564;2022-12-11T00:09:03;99798.63;;;1.93;66.18
46223;BME280;31943;51.410;7.564;2022-12-11T00:11:29;99802.75;;;1.89;66.45
46223;BME280;31943;51.410;7.564;2022-12-11T00:13:54;99798.16;;;1.81;66.34
46223;BME280;31943;51.410;7.564;2022-12-11T00:16:22;99800.59;;;1.77;66.49
46223;BME280;31943;51.410;7.564;2022-12-11T00:18:47;99801.47;;;1.78;66.62
46223;BME280;31943;51.410;7.564;2022-12-11T00:21:13;99799.09;;;1.83;66.51
46223;BME280;31943;51.410;7.564;2022-12-11T00:23:39;99795.69;;;1.84;66.22
46223;BME280;31943;51.410;7.564;2022-12-11T00:26:06;99796.41;;;1.80;66.36
46223;BME280;31943;51.410;7.564;2022-12-11T00:28:32;99797.03;;;1.74;66.46
46223;BME280;31943;51.410;7.564;2022-12-11T00:30:57;99799.59;;;1.74;66.66
46223;BME280;31943;51.410;7.564;2022-12-11T00:33:25;99796.03;;;1.70;66.62
46223;BME280;31943;51.410;7.564;2022-12-11T00:38:19;99799.31;;;1.66;66.97
46223;BME280;31943;51.410;7.564;2022-12-11T00:40:45;99801.41;;;1.54;67.27
46223;BME280;31943;51.410;7.564;2022-12-11T00:43:14;99802.81;;;1.46;67.56
46223;BME280;31943;51.410;7.564;2022-12-11T00:45:41;99804.63;;;1.48;67.85
46223;BME280;31943;51.410;7.564;2022-12-11T00:48:07;99803.63;;;1.45;67.80
46223;BME280;31943;51.410;7.564;2022-12-11T00:50:35;99807.09;;;1.45;67.92
46223;BME280;31943;51.410;7.564;2022-12-11T00:53:01;99796.59;;;1.41;68.13
46223;BME280;31943;51.410;7.564;2022-12-11T00:55:27;99800.81;;;1.38;68.14
46223;BME280;31943;51.410;7.564;2022-12-11T00:57:53;99806.16;;;1.43;68.33
46223;BME280;31943;51.410;7.564;2022-12-11T01:00:19;99807.59;;;1.36;68.09
46223;BME280;31943;51.410;7.564;2022-12-11T01:02:45;99806.81;;;1.39;68.50
46223;BME280;31943;51.410;7.564;2022-12-11T01:05:10;99804.63;;;1.48;68.47
46223;BME280;31943;51.410;7.564;2022-12-11T01:07:37;99801.59;;;1.58;68.42
46223;BME280;31943;51.410;7.564;2022-12-11T01:10:04;99797.28;;;1.57;68.40
46223;BME280;31943;51.410;7.564;2022-12-11T01:12:30;99799.22;;;1.63;68.43
46223;BME280;31943;51.410;7.564;2022-12-11T01:14:55;99801.19;;;1.70;68.52
46223;BME280;31943;51.410;7.564;2022-12-11T01:17:21;99801.25;;;1.72;68.45
46223;BME280;31943;51.410;7.564;2022-12-11T01:19:46;99801.25;;;1.72;68.37
46223;BME280;31943;51.410;7.564;2022-12-11T01:22:12;99798.44;;;1.66;68.42
46223;BME280;31943;51.410;7.564;2022-12-11T01:24:39;99802.06;;;1.71;68.44
46223;BME280;31943;51.410;7.564;2022-12-11T01:27:05;99803.09;;;1.76;68.34
46223;BME280;31943;51.410;7.564;2022-12-11T01:29:31;99801.31;;;1.73;68.43
46223;BME280;31943;51.410;7.564;2022-12-11T01:31:56;99808.31;;;1.77;68.51
46223;BME280;31943;51.410;7.564;2022-12-11T01:34:22;99804.00;;;1.76;68.28
46223;BME280;31943;51.410;7.564;2022-12-11T01:36:48;99800.91;;;1.85;68.24
46223;BME280;31943;51.410;7.564;2022-12-11T01:39:13;99802.91;;;1.94;68.40
46223;BME280;31943;51.410;7.564;2022-12-11T01:41:40;99801.41;;;1.99;67.93
46223;BME280;31943;51.410;7.564;2022-12-11T01:45:00;99803.81;;;1.94;67.96
46223;BME280;31943;51.410;7.564;2022-12-11T01:46:54;99797.13;;;2.00;68.08
46223;BME280;31943;51.410;7.564;2022-12-11T01:49:22;99797.19;;;2.01;67.88
46223;BME280;31943;51.410;7.564;2022-12-11T01:51:54;99804.69;;;1.95;68.15
46223;BME280;31943;51.410;7.564;2022-12-11T01:54:22;99798.69;;;1.94;68.05
46223;BME280;31943;51.410;7.564;2022-12-11T01:56:51;99798.84;;;1.99;68.02
46223;BME280;31943;51.410;7.564;2022-12-11T01:59:20;99799.47;;;1.93;67.92
46223;BME280;31943;51.410;7.564;2022-12-11T02:01:50;99799.47;;;1.93;68.03
46223;BME280;31943;51.410;7.564;2022-12-11T02:04:19;99802.91;;;1.94;67.74
46223;BME280;31943;51.410;7.564;2022-12-11T02:06:49;99804.56;;;1.92;67.74
46223;BME280;31943;51.410;7.564;2022-12-11T02:09:18;99803.41;;;1.84;67.84
46223;BME280;31943;51.410;7.564;2022-12-11T02:11:54;99796.97;;;1.72;67.94
46223;BME280;31943;51.410;7.564;2022-12-11T02:14:30;99794.94;;;1.64;68.18
46223;BME280;31943;51.410;7.564;2022-12-11T02:17:02;99791.56;;;1.65;68.34
46223;BME280;31943;51.410;7.564;2022-12-11T02:19:51;99794.38;;;1.71;68.17
46223;BME280;31943;51.410;7.564;2022-12-11T02:22:27;99794.41;;;1.72;68.13
46223;BME280;31943;51.410;7.564;2022-12-11T02:25:04;99788.50;;;1.75;68.05
46223;BME280;31943;51.410;7.564;2022-12-11T02:27:41;99787.75;;;1.77;67.97
46223;BME280;31943;51.410;7.564;2022-12-11T02:30:13;99784.59;;;1.85;67.80
46223;BME280;31943;51.410;7.564;2022-12-11T02:32:44;99783.97;;;1.92;67.84
46223;BME280;31943;51.410;7.564;2022-12-11T02:35:14;99781.75;;;2.01;67.69
46223;BME280;31943;51.410;7.564;2022-12-11T02:37:44;99781.16;;;2.08;67.37
46223;BME280;31943;51.410;7.564;2022-12-11T02:40:13;99783.69;;;2.07;67.59
46223;BME280;31943;51.410;7.564;2022-12-11T02:42:43;99775.31;;;2.12;67.51
46223;BME280;31943;51.410;7.564;2022-12-11T02:45:12;99779.59;;;2.12;67.21
46223;BME280;31943;51.410;7.564;2022-12-11T02:47:38;99788.28;;;2.15;67.30
46223;BME280;31943;51.410;7.564;2022-12-11T02:50:08;99784.31;;;2.24;67.12
46223;BME280;31943;51.410;7.564;2022-12-11T02:52:36;99785.94;;;2.22;66.91
46223;BME280;31943;51.410;7.564;2022-12-11T02:55:05;99780.03;;;2.24;66.97
46223;BME280;31943;51.410;7.564;2022-12-11T02:57:37;99782.75;;;2.29;66.82
46223;BME280;31943;51.410;7.564;2022-12-11T03:00:04;99775.75;;;2.25;66.68
46223;BME280;31943;51.410;7.564;2022-12-11T03:02:31;99771.25;;;2.19;66.96
46223;BME280;31943;51.410;7.564;2022-12-11T03:04:58;99766.88;;;2.16;66.75
46223;BME280;31943;51.410;7.564;2022-12-11T03:07:27;99770.31;;;2.17;66.72
46223;BME280;31943;51.410;7.564;2022-12-11T03:09:55;99769.66;;;2.23;66.83
46223;BME280;31943;51.410;7.564;2022-12-11T03:12:24;99760.28;;;2.25;66.61
46223;BME280;31943;51.410;7.564;2022-12-11T03:14:51;99763.00;;;2.28;66.68
46223;BME280;31943;51.410;7.564;2022-12-11T03:17:20;99761.16;;;2.25;66.60
46223;BME280;31943;51.410;7.564;2022-12-11T03:19:52;99765.22;;;2.18;66.69
46223;BME280;31943;51.410;7.564;2022-12-11T03:22:23;99761.78;;;2.18;66.76
46223;BME280;31943;51.410;7.564;2022-12-11T03:24:55;99764.41;;;2.20;66.72
46223;BME280;31943;51.410;7.564;2022-12-11T03:27:29;99762.66;;;2.18;66.69
46223;BME280;31943;51.410;7.564;2022-12-11T03:29:59;99759.16;;;2.16;66.92
46223;BME280;31943;51.410;7.564;2022-12-11T03:32:29;99762.78;;;2.22;66.81
46223;BME280;31943;51.410;7.564;2022-12-11T03:35:03;99761.88;;;2.21;66.84
46223;BME280;31943;51.410;7.564;2022-12-11T03:37:32;99760.28;;;2.25;66.81
46223;BME280;31943;51.410;7.564;2022-12-11T03:40:02;99763.91;;;2.30;66.67
46223;BME280;31943;51.410;7.564;2022-12-11T03:42:28;99762.38;;;2.35;66.74
46223;BME280;31943;51.410;7.564;2022-12-11T03:44:55;99759.91;;;2.38;66.71
46223;BME280;31943;51.410;7.564;2022-12-11T03:47:24;99760.97;;;2.45;66.69
46223;BME280;31943;51.410;7.564;2022-12-11T03:49:52;99761.16;;;2.49;66.57
46223;BME280;31943;51.410;7.564;2022-12-11T03:52:21;99750.16;;;2.53;66.58
46223;BME280;31943;51.410;7.564;2022-12-11T03:54:48;99759.66;;;2.56;66.48
46223;BME280;31943;51.410;7.564;2022-12-11T03:57:18;99756.31;;;2.58;66.53
46223;BME280;31943;51.410;7.564;2022-12-11T03:59:46;99761.47;;;2.58;66.20
46223;BME280;31943;51.410;7.564;2022-12-11T04:02:12;99749.31;;;2.54;66.32
46223;BME280;31943;51.410;7.564;2022-12-11T04:04:39;99746.84;;;2.57;66.32
46223;BME280;31943;51.410;7.564;2022-12-11T04:07:05;99752.78;;;2.55;66.29
46223;BME280;31943;51.410;7.564;2022-12-11T04:09:32;99747.50;;;2.52;66.41
46223;BME280;31943;51.410;7.564;2022-12-11T04:11:58;99745.84;;;2.54;66.59
46223;BME280;31943;51.410;7.564;2022-12-11T04:14:24;99754.44;;;2.54;66.33
46223;BME280;31943;51.410;7.564;2022-12-11T04:16:49;99754.25;;;2.48;66.36
46223;BME280;31943;51.410;7.564;2022-12-11T04:19:15;99759.34;;;2.47;66.41
46223;BME280;31943;51.410;7.564;2022-12-11T04:21:41;99758.25;;;2.40;66.40
46223;BME280;31943;51.410;7.564;2022-12-11T04:24:08;99757.22;;;2.35;66.43
46223;BME280;31943;51.410;7.564;2022-12-11T04:26:55;99763.91;;;2.30;66.52
46223;BME280;31943;51.410;7.564;2022-12-11T04:29:21;99758.78;;;2.30;66.54
46223;BME280;31943;51.410;7.564;2022-12-11T04:31:47;99752.47;;;2.22;66.83
46223;BME280;31943;51.410;7.564;2022-12-11T04:34:16;99763.59;;;2.21;66.88
46223;BME280;31943;51.410;7.564;2022-12-11T04:36:42;99755.16;;;2.25;66.81
46223;BME280;31943;51.410;7.564;2022-12-11T04:39:08;99759.44;;;2.24;66.90
46223;BME280;31943;51.410;7.564;2022-12-11T04:41:34;99760.19;;;2.22;67.02
46223;BME280;31943;51.410;7.564;2022-12-11T04:44:01;99758.56;;;2.24;66.86
46223;BME280;31943;51.410;7.564;2022-12-11T04:46:27;99757.38;;;2.15;66.87
46223;BME280;31943;51.410;7.564;2022-12-11T04:48:53;99747.53;;;2.04;66.94
46223;BME280;31943;51.410;7.564;2022-12-11T04:51:20;99749.00;;;1.97;67.34
46223;BME280;31943;51.410;7.564;2022-12-11T04:53:46;99748.88;;;1.94;67.47
46223;BME280;31943;51.410;7.564;2022-12-11T04:56:14;99752.34;;;1.94;67.59
46223;BME280;31943;51.410;7.564;2022-12-11T04:58:40;99748.78;;;1.91;67.68
46223;BME280;31943;51.410;7.564;2022-12-11T05:01:10;99756.38;;;1.88;67.84
46223;BME280;31943;51.410;7.564;2022-12-11T05:03:36;99748.72;;;1.89;67.91
46223;BME280;31943;51.410;7.564;2022-12-11T05:06:02;99745.22;;;1.87;67.94
46223;BME280;31943;51.410;7.564;2022-12-11T05:08:27;99752.94;;;1.87;67.93
46223;BME280;31943;51.410;7.564;2022-12-11T05:10:56;99751.44;;;1.92;67.93
46223;BME280;31943;51.410;7.564;2022-12-11T05:13:23;99762.59;;;1.93;67.94
46223;BME280;31943;51.410;7.564;2022-12-11T05:15:48;99751.44;;;1.92;67.93
46223;BME280;31943;51.410;7.564;2022-12-11T05:18:15;99756.50;;;1.91;67.93
46223;BME280;31943;51.410;7.564;2022-12-11T05:20:41;99750.53;;;1.92;68.03
46223;BME280;31943;51.410;7.564;2022-12-11T05:23:07;99756.66;;;1.95;67.87
46223;BME280;31943;51.410;7.564;2022-12-11T05:25:32;99753.09;;;1.92;68.01
46223;BME280;31943;51.410;7.564;2022-12-11T05:27:59;99753.78;;;1.86;67.90
46223;BME280;31943;51.410;7.564;2022-12-11T05:30:25;99750.22;;;1.83;67.81
46223;BME280;31943;51.410;7.564;2022-12-11T05:32:51;99753.22;;;1.71;68.04
46223;BME280;31943;51.410;7.564;2022-12-11T05:35:18;99757.44;;;1.70;68.49
46223;BME280;31943;51.410;7.564;2022-12-11T05:37:44;99757.41;;;1.69;68.45
46223;BME280;31943;51.410;7.564;2022-12-11T05:40:10;99743.66;;;1.68;68.50
46223;BME280;31943;51.410;7.564;2022-12-11T05:42:35;99745.50;;;1.71;68.67
46223;BME280;31943;51.410;7.564;2022-12-11T05:45:01;99752.38;;;1.72;68.62
46223;BME280;31943;51.410;7.564;2022-12-11T05:47:27;99740.13;;;1.65;68.55
46223;BME280;31943;51.410;7.564;2022-12-11T05:49:52;99741.91;;;1.67;68.61
46223;BME280;31943;51.410;7.564;2022-12-11T05:52:20;99746.06;;;1.64;68.59
46223;BME280;31943;51.410;7.564;2022-12-11T05:54:47;99739.16;;;1.63;68.61
46223;BME280;31943;51.410;7.564;2022-12-11T05:57:13;99746.19;;;1.67;69.02
46223;BME280;31943;51.410;7.564;2022-12-11T05:59:38;99738.75;;;1.74;68.73
46223;BME280;31943;51.410;7.564;2022-12-11T06:02:04;99743.22;;;1.78;68.90
46223;BME280;31943;51.410;7.564;2022-12-11T06:04:30;99737.56;;;1.89;68.79
46223;BME280;31943;51.410;7.564;2022-12-11T06:06:56;99738.56;;;1.92;68.75
46223;BME280;31943;51.410;7.564;2022-12-11T06:09:23;99743.94;;;1.98;68.61
46223;BME280;31943;51.410;7.564;2022-12-11T06:11:49;99738.13;;;2.04;68.36
46223;BME280;31943;51.410;7.564;2022-12-11T06:14:14;99736.50;;;2.06;68.39
46223;BME280;31943;51.410;7.564;2022-12-11T06:16:49;99740.00;;;2.08;68.34
46223;BME280;31943;51.410;7.564;2022-12-11T06:19:15;99740.78;;;2.07;68.17
46223;BME280;31943;51.410;7.564;2022-12-11T06:21:41;99731.94;;;1.99;68.27
46223;BME280;31943;51.410;7.564;2022-12-11T06:24:09;99724.78;;;1.92;68.20
46223;BME280;31943;51.410;7.564;2022-12-11T06:26:37;99730.72;;;1.89;68.58
46223;BME280;31943;51.410;7.564;2022-12-11T06:29:02;99718.84;;;1.93;68.66
46223;BME280;31943;51.410;7.564;2022-12-11T06:31:28;99722.47;;;1.98;68.57
46223;BME280;31943;51.410;7.564;2022-12-11T06:33:54;99713.97;;;2.01;68.49
46223;BME280;31943;51.410;7.564;2022-12-11T06:36:21;99721.78;;;2.04;68.54
46223;BME280;31943;51.410;7.564;2022-12-11T06:38:47;99720.25;;;2.09;68.40
46223;BME280;31943;51.410;7.564;2022-12-11T06:41:13;99721.03;;;2.06;68.51
46223;BME280;31943;51.410;7.564;2022-12-11T06:43:41;99730.34;;;2.03;68.55
46223;BME280;31943;51.410;7.564;2022-12-11T06:46:09;99737.00;;;1.97;68.67
46223;BME280;31943;51.410;7.564;2022-12-11T06:48:35;99731.94;;;1.99;68.45
46223;BME280;31943;51.410;7.564;2022-12-11T06:51:04;99732.84;;;2.01;68.59
46223;BME280;31943;51.410;7.564;2022-12-11T06:53:30;99732.09;;;2.04;68.57
46223;BME280;31943;51.410;7.564;2022-12-11T06:56:01;99737.91;;;1.98;68.54
46223;BME280;31943;51.410;7.564;2022-12-11T06:58:26;99729.91;;;1.90;68.53
46223;BME280;31943;51.410;7.564;2022-12-11T07:00:53;99734.13;;;1.88;68.58
46223;BME280;31943;51.410;7.564;2022-12-11T07:03:19;99734.06;;;1.87;68.79
46223;BME280;31943;51.410;7.564;2022-12-11T07:05:44;99728.78;;;1.84;68.64
46223;BME280;31943;51.410;7.564;2022-12-11T07:08:10;99729.00;;;1.90;68.46
46223;BME280;31943;51.410;7.564;2022-12-11T07:10:35;99729.34;;;1.99;68.23
46223;BME280;31943;51.410;7.564;2022-12-11T07:13:01;99731.38;;;2.08;68.18
46223;BME280;31943;51.410;7.564;2022-12-11T07:15:26;99733.25;;;2.12;67.95
46223;BME280;31943;51.410;7.564;2022-12-11T07:17:53;99736.84;;;2.17;67.92
46223;BME280;31943;51.410;7.564;2022-12-11T07:20:19;99746.44;;;2.21;67.79
46223;BME280;31943;51.410;7.564;2022-12-11T07:22:44;99734.59;;;2.26;67.55
46223;BME280;31943;51.410;7.564;2022-12-11T07:25:10;99733.88;;;2.30;67.20
46223;BME280;31943;51.410;7.564;2022-12-11T07:27:35;99734.16;;;2.38;66.99
46223;BME280;31943;51.410;7.564;2022-12-11T07:30:02;99736.88;;;2.43;66.87
46223;BME280;31943;51.410;7.564;2022-12-11T07:32:32;99736.94;;;2.44;66.61
46223;BME280;31943;51.410;7.564;2022-12-11T07:35:09;99732.72;;;2.46;66.03
46223;BME280;31943;51.410;7.564;2022-12-11T07:37:35;99730.25;;;2.49;66.04
46223;BME280;31943;51.410;7.564;2022-12-11T07:40:00;99728.50;;;2.48;65.68
46223;BME280;31943;51.410;7.564;2022-12-11T07:42:27;99726.91;;;2.52;65.54
46223;BME280;31943;51.410;7.564;2022-12-11T07:44:53;99726.03;;;2.51;65.54
46223;BME280;31943;51.410;7.564;2022-12-11T07:47:18;99728.56;;;2.50;65.33
46223;BME280;31943;51.410;7.564;2022-12-11T07:49:47;99733.75;;;2.51;65.13
46223;BME280;31943;51.410;7.564;2022-12-11T07:52:14;99734.69;;;2.53;64.92
46223;BME280;31943;51.410;7.564;2022-12-11T07:54:47;99734.75;;;2.55;64.83
46223;BME280;31943;51.410;7.564;2022-12-11T07:57:13;99725.25;;;2.54;64.92
46223;BME280;31943;51.410;7.564;2022-12-11T07:59:39;99725.38;;;2.57;64.64
46223;BME280;31943;51.410;7.564;2022-12-11T08:02:04;99731.38;;;2.57;64.54
46223;BME280;31943;51.410;7.564;2022-12-11T08:04:30;99735.75;;;2.60;64.48
46223;BME280;31943;51.410;7.564;2022-12-11T08:06:56;99736.63;;;2.61;64.56
46223;BME280;31943;51.410;7.564;2022-12-11T08:09:23;99736.75;;;2.64;64.58
46223;BME280;31943;51.410;7.564;2022-12-11T08:11:49;99734.28;;;2.67;64.60
46223;BME280;31943;51.410;7.564;2022-12-11T08:14:15;99738.50;;;2.65;64.46
46223;BME280;31943;51.410;7.564;2022-12-11T08:16:41;99734.09;;;2.62;64.34
46223;BME280;31943;51.410;7.564;2022-12-11T08:19:07;99746.84;;;2.57;64.46
46223;BME280;31943;51.410;7.564;2022-12-11T08:21:32;99753.78;;;2.60;64.53
46223;BME280;31943;51.410;7.564;2022-12-11T08:23:58;99747.00;;;2.62;64.34
46223;BME280;31943;51.410;7.564;2022-12-11T08:26:27;99744.47;;;2.64;64.33
46223;BME280;31943;51.410;7.564;2022-12-11T08:28:53;99739.25;;;2.62;63.93
46223;BME280;31943;51.410;7.564;2022-12-11T08:31:19;99736.75;;;2.64;63.81
46223;BME280;31943;51.410;7.564;2022-12-11T08:33:45;99738.34;;;2.60;63.52
46223;BME280;31943;51.410;7.564;2022-12-11T08:36:12;99738.00;;;2.51;63.65
46223;BME280;31943;51.410;7.564;2022-12-11T08:38:38;99742.22;;;2.47;63.64
46223;BME280;31943;51.410;7.564;2022-12-11T08:41:08;99744.00;;;2.50;64.06
46223;BME280;31943;51.410;7.564;2022-12-11T08:43:35;99743.34;;;2.55;63.86
46223;BME280;31943;51.410;7.564;2022-12-11T08:46:00;99744.34;;;2.61;63.90
46223;BME280;31943;51.410;7.564;2022-12-11T08:48:26;99746.25;;;2.65;63.47
46223;BME280;31943;51.410;7.564;2022-12-11T08:50:51;99739.38;;;2.65;63.31
46223;BME280;31943;51.410;7.564;2022-12-11T08:53:17;99735.94;;;2.65;63.05
46223;BME280;31943;51.410;7.564;2022-12-11T08:55:43;99733.34;;;2.65;63.13
46223;BME280;31943;51.410;7.564;2022-12-11T08:58:08;99736.00;;;2.68;63.15
46223;BME280;31943;51.410;7.564;2022-12-11T09:00:35;99737.00;;;2.71;63.14
46223;BME280;31943;51.410;7.564;2022-12-11T09:03:01;99734.47;;;2.73;63.07
46223;BME280;31943;51.410;7.564;2022-12-11T09:05:26;99740.56;;;2.75;63.42
46223;BME280;31943;51.410;7.564;2022-12-11T09:07:52;99743.13;;;2.75;63.21
46223;BME280;31943;51.410;7.564;2022-12-11T09:10:17;99739.47;;;2.68;63.09
46223;BME280;31943;51.410;7.564;2022-12-11T09:12:43;99735.94;;;2.65;63.06
46223;BME280;31943;51.410;7.564;2022-12-11T09:15:09;99741.22;;;2.69;63.07
46223;BME280;31943;51.410;7.564;2022-12-11T09:17:37;99738.66;;;2.69;62.48
46223;BME280;31943;51.410;7.564;2022-12-11T09:20:03;99732.44;;;2.63;62.34
46223;BME280;31943;51.410;7.564;2022-12-11T09:22:30;99744.34;;;2.61;62.50
46223;BME280;31943;51.410;7.564;2022-12-11T09:24:56;99747.97;;;2.66;62.83
46223;BME280;31943;51.410;7.564;2022-12-11T09:27:21;99746.13;;;2.62;62.78
46223;BME280;31943;51.410;7.564;2022-12-11T09:29:47;99751.16;;;2.58;62.69
46223;BME280;31943;51.410;7.564;2022-12-11T09:32:12;99749.38;;;2.56;62.93
46223;BME280;31943;51.410;7.564;2022-12-11T09:34:39;99748.22;;;2.48;62.73
46223;BME280;31943;51.410;7.564;2022-12-11T09:37:05;99742.00;;;2.41;62.89
46223;BME280;31943;51.410;7.564;2022-12-11T09:39:30;99745.25;;;2.37;62.93
46223;BME280;31943;51.410;7.564;2022-12-11T09:42:02;99740.84;;;2.33;62.65
46223;BME280;31943;51.410;7.564;2022-12-11T09:44:33;99737.50;;;2.35;62.85
46223;BME280;31943;51.410;7.564;2022-12-11T09:46:59;99735.97;;;2.41;62.88
46223;BME280;31943;51.410;7.564;2022-12-11T09:49:30;99740.50;;;2.48;63.06
46223;BME280;31943;51.410;7.564;2022-12-11T09:52:07;99738.06;;;2.52;63.02
46223;BME280;31943;51.410;7.564;2022-12-11T09:54:35;99739.78;;;2.52;63.03
46223;BME280;31943;51.410;7.564;2022-12-11T09:57:08;99732.72;;;2.46;63.20
46223;BME280;31943;51.410;7.564;2022-12-11T09:59:44;99737.25;;;2.53;62.99
46223;BME280;31943;51.410;7.564;2022-12-11T10:02:23;99733.25;;;2.62;62.93
46223;BME280;31943;51.410;7.564;2022-12-11T10:05:01;99728.28;;;2.68;62.93
46223;BME280;31943;51.410;7.564;2022-12-11T10:07:34;99724.91;;;2.69;62.67
46223;BME280;31943;51.410;7.564;2022-12-11T10:10:08;99723.28;;;2.72;62.85
46223;BME280;31943;51.410;7.564;2022-12-11T10:12:45;99719.09;;;2.74;62.84
46223;BME280;31943;51.410;7.564;2022-12-11T10:15:23;99712.34;;;2.80;62.51
46223;BME280;31943;51.410;7.564;2022-12-11T10:17:54;99713.34;;;2.83;62.52
46223;BME280;31943;51.410;7.564;2022-12-11T10:20:24;99716.06;;;2.88;62.56
46223;BME280;31943;51.410;7.564;2022-12-11T10:22:54;99709.25;;;2.90;62.61
46223;BME280;31943;51.410;7.564;2022-12-11T10:25:21;99703.34;;;2.92;62.40
46223;BME280;31943;51.410;7.564;2022-12-11T10:27:49;99704.25;;;2.94;62.28
46223;BME280;31943;51.410;7.564;2022-12-11T10:30:16;99706.00;;;2.95;61.89
46223;BME280;31943;51.410;7.564;2022-12-11T10:32:52;99702.69;;;3.00;62.13
46223;BME280;31943;51.410;7.564;2022-12-11T10:35:24;99701.94;;;3.02;62.18
46223;BME280;31943;51.410;7.564;2022-12-11T10:37:54;99703.66;;;3.03;62.17
46223;BME280;31943;51.410;7.564;2022-12-11T10:40:23;99700.22;;;3.03;62.12
46223;BME280;31943;51.410;7.564;2022-12-11T10:42:53;99705.25;;;3.00;62.19
46223;BME280;31943;51.410;7.564;2022-12-11T10:45:19;99702.44;;;2.92;62.15
46223;BME280;31943;51.410;7.564;2022-12-11T10:47:45;99700.66;;;2.89;62.12
46223;BME280;31943;51.410;7.564;2022-12-11T10:50:22;99703.66;;;2.76;61.98
46223;BME280;31943;51.410;7.564;2022-12-11T10:52:48;99698.41;;;2.73;62.18
46223;BME280;31943;51.410;7.564;2022-12-11T10:55:20;99702.00;;;2.78;62.12
46223;BME280;31943;51.410;7.564;2022-12-11T10:57:53;99700.09;;;2.72;62.28
46223;BME280;31943;51.410;7.564;2022-12-11T11:00:33;99702.91;;;2.79;62.02
46223;BME280;31943;51.410;7.564;2022-12-11T11:03:00;99689.09;;;2.78;62.01
46223;BME280;31943;51.410;7.564;2022-12-11T11:05:28;99691.00;;;2.84;62.08
46223;BME280;31943;51.410;7.564;2022-12-11T11:08:02;99689.31;;;2.84;61.96
46223;BME280;31943;51.410;7.564;2022-12-11T11:10:30;99684.94;;;2.82;61.87
46223;BME280;31943;51.410;7.564;2022-12-11T11:12:59;99684.25;;;2.87;62.12
46223;BME280;31943;51.410;7.564;2022-12-11T11:15:27;99684.50;;;2.95;62.12
46223;BME280;31943;51.410;7.564;2022-12-11T11:17:54;99684.69;;;3.01;62.00
46223;BME280;31943;51.410;7.564;2022-12-11T11:20:22;99684.69;;;3.01;62.40
46223;BME280;31943;51.410;7.564;2022-12-11T11:22:51;99682.97;;;3.02;61.69
46223;BME280;31943;51.410;7.564;2022-12-11T11:25:19;99684.00;;;3.07;61.79
46223;BME280;31943;51.410;7.564;2022-12-11T11:27:50;99686.59;;;3.07;61.81
46223;BME280;31943;51.410;7.564;2022-12-11T11:30:20;99685.66;;;3.05;61.66
46223;BME280;31943;51.410;7.564;2022-12-11T11:32:45;99674.56;;;3.07;61.66
46223;BME280;31943;51.410;7.564;2022-12-11T11:35:20;99678.00;;;3.06;61.67
46223;BME280;31943;51.410;7.564;2022-12-11T11:37:55;99676.34;;;3.08;61.60
46223;BME280;31943;51.410;7.564;2022-12-11T11:40:25;99674.72;;;3.12;61.72
46223;BME280;31943;51.410;7.564;2022-12-11T11:43:00;99667.13;;;3.16;61.60
46223;BME280;31943;51.410;7.564;2022-12-11T11:45:33;99665.47;;;3.19;61.64
46223;BME280;31943;51.410;7.564;2022-12-11T11:48:10;99667.25;;;3.21;61.84
46223;BME280;31943;51.410;7.564;2022-12-11T11:50:40;99666.44;;;3.22;61.64
46223;BME280;31943;51.410;7.564;2022-12-11T11:53:12;99666.34;;;3.19;61.23
46223;BME280;31943;51.410;7.564;2022-12-11T11:55:48;99657.72;;;3.19;61.56
46223;BME280;31943;51.410;7.564;2022-12-11T11:58:20;99662.94;;;3.20;61.41
46223;BME280;31943;51.410;7.564;2022-12-11T12:00:47;99668.09;;;3.20;61.26
46223;BME280;31943;51.410;7.564;2022-12-11T12:03:15;99663.00;;;3.22;61.32
46223;BME280;31943;51.410;7.564;2022-12-11T12:05:48;99663.00;;;3.22;61.69
46223;BME280;31943;51.410;7.564;2022-12-11T12:08:22;99657.84;;;3.23;61.48
46223;BME280;31943;51.410;7.564;2022-12-11T12:10:55;99664.72;;;3.23;61.42
46223;BME280;31943;51.410;7.564;2022-12-11T12:13:31;99657.03;;;3.24;61.60
46223;BME280;31943;51.410;7.564;2022-12-11T12:16:01;99663.91;;;3.24;61.48
46223;BME280;31943;51.410;7.564;2022-12-11T12:18:34;99661.34;;;3.24;61.23
46223;BME280;31943;51.410;7.564;2022-12-11T12:21:11;99658.78;;;3.25;61.45
46223;BME280;31943;51.410;7.564;2022-12-11T12:23:52;99648.56;;;3.28;61.49
46223;BME280;31943;51.410;7.564;2022-12-11T12:26:23;99643.47;;;3.30;61.53
46223;BME280;31943;51.410;7.564;2022-12-11T12:29:01;99641.75;;;3.30;61.53
46223;BME280;31943;51.410;7.564;2022-12-11T12:31:42;99640.03;;;3.31;61.41
46223;BME280;31943;51.410;7.564;2022-12-11T12:34:17;99642.53;;;3.28;61.45
46223;BME280;31943;51.410;7.564;2022-12-11T12:36:53;99642.50;;;3.26;61.30
46223;BME280;31943;51.410;7.564;2022-12-11T12:39:27;99636.38;;;3.23;61.27
46223;BME280;31943;51.410;7.564;2022-12-11T12:42:01;99636.38;;;3.23;61.36
46223;BME280;31943;51.410;7.564;2022-12-11T12:44:37;99644.97;;;3.23;61.36
46223;BME280;31943;51.410;7.564;2022-12-11T12:47:09;99642.38;;;3.23;61.23
46223;BME280;31943;51.410;7.564;2022-12-11T12:49:39;99643.28;;;3.24;61.16
46223;BME280;31943;51.410;7.564;2022-12-11T12:52:09;99639.84;;;3.25;61.30
46223;BME280;31943;51.410;7.564;2022-12-11T12:54:37;99641.63;;;3.26;61.46
46223;BME280;31943;51.410;7.564;2022-12-11T12:57:21;99642.50;;;3.26;61.40
46223;BME280;31943;51.410;7.564;2022-12-11T12:59:52;99639.13;;;3.29;61.27
46223;BME280;31943;51.410;7.564;2022-12-11T13:02:18;99638.25;;;3.28;61.34
46223;BME280;31943;51.410;7.564;2022-12-11T13:04:55;99634.00;;;3.30;61.15
46223;BME280;31943;51.410;7.564;2022-12-11T13:07:26;99637.47;;;3.31;61.16
46223;BME280;31943;51.410;7.564;2022-12-11T13:10:03;99628.00;;;3.30;60.97
46223;BME280;31943;51.410;7.564;2022-12-11T13:12:40;99625.31;;;3.27;61.05
46223;BME280;31943;51.410;7.564;2022-12-11T13:15:32;99623.59;;;3.27;60.82
46223;BME280;31943;51.410;7.564;2022-12-11T13:17:59;99619.28;;;3.26;60.93
46223;BME280;31943;51.410;7.564;2022-12-11T13:20:27;99620.19;;;3.28;61.06